createdAt,value
2022-12-08T00:01:15.325Z,23.10
2022-12-08T00:03:43.233Z,25.03
2022-12-08T00:06:38.052Z,22.37
2022-12-08T00:09:23.206Z,19.53
2022-12-08T00:11:58.644Z,23.03
2022-12-08T00:14:29.610Z,21.23
2022-12-08T00:16:57.372Z,20.83
2022-12-08T00:19:25.894Z,19.70
2022-12-08T00:21:53.617Z,15.45
2022-12-08T00:24:22.093Z,19.57
2022-12-08T00:26:49.424Z,23.38
2022-12-08T00:29:17.932Z,21.07
2022-12-08T00:31:45.141Z,23.45
2022-12-08T00:34:16.372Z,19.80
2022-12-08T00:36:43.741Z,21.07
2022-12-08T00:39:11.823Z,16.97
2022-12-08T00:41:57.645Z,17.20
2022-12-08T00:44:24.949Z,24.27
2022-12-08T00:46:51.844Z,19.83
2022-12-08T00:49:19.300Z,17.20
2022-12-08T00:51:46.567Z,21.97
2022-12-08T00:54:13.806Z,18.67
2022-12-08T00:56:40.689Z,20.10
2022-12-08T00:59:08.098Z,17.97
2022-12-08T01:01:35.400Z,20.60
2022-12-08T01:04:05.179Z,20.27
2022-12-08T01:06:32.545Z,21.73
2022-12-08T01:08:59.616Z,20.17
2022-12-08T01:11:26.481Z,20.90
2022-12-08T01:13:54.773Z,21.60
2022-12-08T01:16:24.124Z,20.27
2022-12-08T01:18:51.492Z,20.43
2022-12-08T01:21:18.760Z,20.00
2022-12-08T01:23:46.743Z,21.97
2022-12-08T01:26:15.613Z,21.17
2022-12-08T01:28:43.783Z,21.60
2022-12-08T01:31:16.924Z,23.03
2022-12-08T01:33:45.016Z,19.73
2022-12-08T01:36:21.402Z,21.63
2022-12-08T01:38:49.012Z,20.27
2022-12-08T01:41:18.166Z,19.77
2022-12-08T01:44:04.913Z,19.83
2022-12-08T01:46:34.302Z,21.33
2022-12-08T01:49:10.907Z,21.08
2022-12-08T01:52:03.988Z,24.03
2022-12-08T01:54:56.838Z,23.37
2022-12-08T01:57:37.624Z,21.90
2022-12-08T02:00:10.892Z,24.23
2022-12-08T02:02:54.436Z,21.10
2022-12-08T02:05:25.429Z,26.50
2022-12-08T02:07:53.411Z,22.00
2022-12-08T02:10:23.340Z,23.73
2022-12-08T02:12:53.738Z,18.87
2022-12-08T02:15:27.673Z,20.67
2022-12-08T02:18:04.356Z,24.00
2022-12-08T02:20:50.763Z,23.93
2022-12-08T02:23:27.245Z,22.87
2022-12-08T02:26:25.058Z,24.33
2022-12-08T02:29:23.130Z,24.27
2022-12-08T02:32:41.885Z,20.60
2022-12-08T02:35:11.349Z,19.73
2022-12-08T02:37:43.521Z,18.97
2022-12-08T02:40:24.584Z,22.20
2022-12-08T02:43:07.912Z,23.17
2022-12-08T02:45:45.032Z,22.93
2022-12-08T02:48:12.477Z,19.07
2022-12-08T02:50:39.218Z,22.27
2022-12-08T02:55:56.038Z,19.47
2022-12-08T02:58:41.319Z,20.77
2022-12-08T03:01:46.903Z,20.93
2022-12-08T03:04:22.755Z,24.27
2022-12-08T03:06:55.437Z,22.53
2022-12-08T03:09:33.920Z,19.50
2022-12-08T03:12:16.419Z,18.55
2022-12-08T03:14:48.389Z,23.70
2022-12-08T03:17:18.957Z,26.30
2022-12-08T03:19:48.819Z,23.73
2022-12-08T03:22:19.904Z,20.40
2022-12-08T03:24:47.370Z,23.43
2022-12-08T03:27:24.057Z,24.03
2022-12-08T03:29:54.098Z,25.07
2022-12-08T03:32:30.697Z,27.17
2022-12-08T03:35:01.349Z,25.17
2022-12-08T03:37:28.768Z,21.30
2022-12-08T03:39:56.192Z,23.37
2022-12-08T03:42:23.302Z,23.10
2022-12-08T03:44:50.410Z,22.80
2022-12-08T03:47:17.297Z,26.57
2022-12-08T03:49:44.372Z,28.40
2022-12-08T03:52:11.177Z,25.80
2022-12-08T03:54:38.313Z,32.13
2022-12-08T03:57:05.097Z,27.43
2022-12-08T03:59:32.240Z,31.63
2022-12-08T04:01:59.117Z,31.90
2022-12-08T04:04:26.296Z,31.43
2022-12-08T04:06:53.033Z,22.70
2022-12-08T04:09:20.092Z,23.70
2022-12-08T04:11:46.876Z,26.10
2022-12-08T04:14:14.494Z,25.20
2022-12-08T04:16:41.636Z,31.70
2022-12-08T04:19:08.687Z,23.73
2022-12-08T04:21:35.521Z,26.60
2022-12-08T04:24:02.970Z,24.23
2022-12-08T04:26:29.824Z,23.13
2022-12-08T04:28:56.932Z,22.13
2022-12-08T04:31:23.791Z,21.57
2022-12-08T04:33:50.929Z,23.73
2022-12-08T04:36:17.704Z,24.97
2022-12-08T04:38:44.909Z,26.33
2022-12-08T04:41:11.676Z,23.63
2022-12-08T04:43:38.732Z,21.03
2022-12-08T04:46:09.316Z,22.97
2022-12-08T04:48:41.034Z,26.67
2022-12-08T04:51:12.152Z,23.87
2022-12-08T04:53:44.841Z,20.30
2022-12-08T04:56:15.162Z,22.83
2022-12-08T05:01:09.510Z,20.07
2022-12-08T05:03:36.852Z,22.73
2022-12-08T05:06:04.645Z,22.47
2022-12-08T05:08:32.464Z,25.70
2022-12-08T05:11:07.264Z,27.73
2022-12-08T05:13:34.448Z,20.07
2022-12-08T05:16:09.969Z,27.13
2022-12-08T05:18:37.482Z,23.50
2022-12-08T05:21:04.957Z,25.57
2022-12-08T05:23:32.704Z,20.93
2022-12-08T05:26:00.626Z,21.03
2022-12-08T05:28:43.893Z,20.08
2022-12-08T05:31:13.644Z,20.13
2022-12-08T05:33:40.978Z,21.40
2022-12-08T05:36:09.013Z,18.13
2022-12-08T05:38:36.152Z,21.35
2022-12-08T05:41:02.941Z,22.80
2022-12-08T05:43:30.057Z,24.60
2022-12-08T05:45:56.982Z,26.87
2022-12-08T05:48:24.206Z,24.07
2022-12-08T05:50:51.862Z,27.37
2022-12-08T05:53:20.675Z,23.17
2022-12-08T05:55:48.249Z,26.90
2022-12-08T05:58:18.109Z,24.63
2022-12-08T06:00:46.630Z,24.10
2022-12-08T06:03:15.436Z,23.75
2022-12-08T06:05:44.076Z,22.35
2022-12-08T06:08:11.739Z,24.90
2022-12-08T06:10:43.244Z,21.53
2022-12-08T06:13:10.767Z,24.07
2022-12-08T06:15:38.890Z,22.57
2022-12-08T06:18:07.213Z,29.67
2022-12-08T06:20:34.996Z,30.03
2022-12-08T06:23:03.592Z,22.33
2022-12-08T06:25:30.860Z,26.27
2022-12-08T06:27:58.027Z,28.00
2022-12-08T06:30:24.793Z,27.50
2022-12-08T06:32:51.898Z,27.17
2022-12-08T06:35:18.745Z,24.83
2022-12-08T06:37:45.853Z,29.27
2022-12-08T06:40:13.084Z,27.77
2022-12-08T06:42:47.114Z,23.70
2022-12-08T06:45:18.167Z,24.60
2022-12-08T06:47:45.330Z,26.80
2022-12-08T06:50:13.790Z,21.70
2022-12-08T06:52:54.204Z,23.92
2022-12-08T06:55:50.944Z,29.63
2022-12-08T06:58:11.196Z,23.67
2022-12-08T07:00:38.400Z,26.87
2022-12-08T07:03:07.349Z,21.47
2022-12-08T07:05:34.902Z,20.50
2022-12-08T07:08:02.193Z,24.43
2022-12-08T07:10:29.286Z,17.73
2022-12-08T07:12:56.751Z,17.20
2022-12-08T07:15:23.629Z,19.37
2022-12-08T07:17:56.295Z,19.40
2022-12-08T07:20:26.293Z,19.73
2022-12-08T07:22:54.283Z,22.37
2022-12-08T07:25:21.340Z,18.10
2022-12-08T07:27:50.186Z,16.13
2022-12-08T07:30:17.720Z,15.95
2022-12-08T07:32:45.526Z,19.60
2022-12-08T07:35:12.404Z,19.97
2022-12-08T07:37:39.636Z,17.97
2022-12-08T07:40:08.604Z,18.17
2022-12-08T07:42:35.899Z,17.40
2022-12-08T07:45:02.793Z,18.37
2022-12-08T07:47:29.940Z,21.20
2022-12-08T07:49:56.763Z,20.07
2022-12-08T07:52:24.009Z,17.83
2022-12-08T07:54:50.809Z,18.20
2022-12-08T07:57:17.864Z,17.33
2022-12-08T07:59:44.600Z,20.73
2022-12-08T08:02:25.975Z,28.07
2022-12-08T08:04:53.618Z,58.87
2022-12-08T08:07:20.912Z,30.17
2022-12-08T08:09:47.644Z,17.70
2022-12-08T08:12:31.670Z,18.50
2022-12-08T08:15:00.153Z,56.60
2022-12-08T08:17:28.220Z,14.88
2022-12-08T08:19:55.168Z,22.65
2022-12-08T08:22:22.400Z,123.45
2022-12-08T08:24:49.157Z,13.38
2022-12-08T08:27:16.289Z,13.93
2022-12-08T08:29:43.088Z,13.55
2022-12-08T08:32:10.489Z,14.25
2022-12-08T08:34:37.368Z,11.02
2022-12-08T08:37:04.806Z,11.25
2022-12-08T08:39:32.082Z,9.32
2022-12-08T08:41:59.322Z,9.75
2022-12-08T08:44:26.291Z,8.40
2022-12-08T08:46:53.545Z,7.78
2022-12-08T08:49:20.893Z,9.98
2022-12-08T08:51:48.206Z,9.80
2022-12-08T08:54:15.399Z,9.07
2022-12-08T08:56:42.528Z,23.10
2022-12-08T08:59:10.470Z,23.05
2022-12-08T09:01:37.671Z,37.88
2022-12-08T09:04:04.579Z,26.25
2022-12-08T09:06:31.999Z,51.38
2022-12-08T09:08:58.801Z,90.90
2022-12-08T09:11:26.002Z,28.73
2022-12-08T09:13:54.377Z,17.30
2022-12-08T09:16:22.093Z,13.75
2022-12-08T09:18:52.175Z,11.88
2022-12-08T09:21:23.132Z,10.98
2022-12-08T09:23:51.275Z,7.68
2022-12-08T09:26:18.457Z,8.33
2022-12-08T09:28:46.737Z,9.70
2022-12-08T09:31:14.659Z,8.85
2022-12-08T09:33:42.141Z,7.95
2022-12-08T09:36:11.049Z,9.95
2022-12-08T09:38:38.896Z,19.88
2022-12-08T09:41:16.893Z,10.95
2022-12-08T09:44:02.681Z,10.80
2022-12-08T09:46:32.260Z,13.82
2022-12-08T09:51:38.829Z,10.73
2022-12-08T09:54:22.495Z,12.23
2022-12-08T09:56:55.059Z,15.05
2022-12-08T09:59:32.816Z,13.82
2022-12-08T10:02:11.660Z,8.38
2022-12-08T10:04:39.277Z,7.35
2022-12-08T10:07:25.371Z,10.57
2022-12-08T10:10:17.008Z,8.95
2022-12-08T10:12:51.996Z,10.63
2022-12-08T10:15:44.261Z,7.65
2022-12-08T10:18:23.186Z,5.68
2022-12-08T10:20:52.737Z,8.55
2022-12-08T10:23:29.874Z,10.25
2022-12-08T10:26:02.544Z,11.30
2022-12-08T10:28:29.875Z,7.40
2022-12-08T10:30:56.874Z,20.60
2022-12-08T10:33:24.008Z,7.05
2022-12-08T10:35:54.568Z,17.40
2022-12-08T10:38:36.947Z,7.50
2022-12-08T10:41:11.231Z,10.30
2022-12-08T10:43:43.806Z,10.45
2022-12-08T10:46:22.264Z,8.63
2022-12-08T10:48:49.650Z,6.68
2022-12-08T10:51:40.192Z,6.30
2022-12-08T10:54:28.264Z,8.43
2022-12-08T10:56:57.245Z,10.07
2022-12-08T11:01:56.604Z,8.70
2022-12-08T11:04:36.192Z,7.45
2022-12-08T11:09:40.096Z,8.10
2022-12-08T11:12:15.752Z,45.15
2022-12-08T11:14:42.773Z,13.88
2022-12-08T11:17:13.014Z,11.45
2022-12-08T11:19:42.537Z,9.52
2022-12-08T11:22:32.607Z,47.67
2022-12-08T11:25:10.684Z,25.77
2022-12-08T11:27:43.666Z,36.50
2022-12-08T11:30:15.407Z,25.85
2022-12-08T11:32:44.987Z,5.55
2022-12-08T11:35:24.181Z,7.05
2022-12-08T11:37:51.153Z,6.65
2022-12-08T11:40:29.699Z,7.50
2022-12-08T11:43:21.302Z,10.03
2022-12-08T11:45:59.048Z,11.38
2022-12-08T11:49:05.889Z,10.20
2022-12-08T11:51:36.646Z,10.73
2022-12-08T11:54:24.872Z,7.10
2022-12-08T11:56:55.721Z,9.60
2022-12-08T11:59:31.624Z,9.43
2022-12-08T12:02:01.473Z,14.60
2022-12-08T12:04:31.008Z,11.10
2022-12-08T12:07:26.567Z,14.43
2022-12-08T12:10:31.950Z,22.37
2022-12-08T12:12:58.968Z,17.17
2022-12-08T12:15:41.013Z,12.80
2022-12-08T12:18:19.069Z,14.93
2022-12-08T12:21:07.772Z,11.40
2022-12-08T12:23:44.427Z,18.73
2022-12-08T12:26:35.094Z,11.93
2022-12-08T12:29:13.084Z,13.53
2022-12-08T12:31:47.332Z,14.87
2022-12-08T12:34:22.534Z,11.67
2022-12-08T12:37:13.104Z,13.90
2022-12-08T12:39:49.220Z,10.47
2022-12-08T12:42:38.192Z,11.90
2022-12-08T12:45:17.089Z,14.70
2022-12-08T12:47:56.236Z,12.55
2022-12-08T12:50:38.622Z,10.40
2022-12-08T12:53:26.719Z,10.00
2022-12-08T12:56:01.438Z,11.73
2022-12-08T12:58:28.191Z,11.73
2022-12-08T13:01:10.324Z,11.07
2022-12-08T13:03:49.947Z,11.93
2022-12-08T13:06:32.349Z,9.83
2022-12-08T13:09:00.034Z,8.37
2022-12-08T13:11:27.382Z,11.33
2022-12-08T13:14:05.254Z,11.13
2022-12-08T13:16:34.911Z,11.27
2022-12-08T13:19:10.031Z,10.90
2022-12-08T13:21:39.013Z,18.33
2022-12-08T13:24:19.822Z,19.67
2022-12-08T13:27:07.815Z,14.57
2022-12-08T13:29:35.878Z,11.47
2022-12-08T13:32:02.956Z,15.07
2022-12-08T13:34:51.450Z,12.30
2022-12-08T13:37:53.909Z,12.07
2022-12-08T13:40:25.649Z,10.17
2022-12-08T13:43:16.913Z,8.70
2022-12-08T13:57:37.543Z,9.80
2022-12-08T14:00:14.797Z,13.90
2022-12-08T14:02:47.784Z,14.70
2022-12-08T14:05:19.505Z,14.67
2022-12-08T14:07:49.729Z,10.13
2022-12-08T14:10:21.196Z,16.40
2022-12-08T14:12:56.139Z,23.43
2022-12-08T14:15:25.846Z,25.50
2022-12-08T14:17:57.340Z,27.97
2022-12-08T14:20:30.035Z,28.40
2022-12-08T14:23:01.267Z,37.63
2022-12-08T14:25:29.811Z,33.00
2022-12-08T14:28:01.265Z,44.73
2022-12-08T14:30:36.302Z,49.70
2022-12-08T14:33:04.894Z,59.63
2022-12-08T14:35:37.618Z,42.25
2022-12-08T14:38:11.599Z,33.90
2022-12-08T14:40:41.693Z,28.17
2022-12-08T14:43:13.607Z,33.03
2022-12-08T14:45:40.807Z,26.43
2022-12-08T14:48:38.589Z,29.27
2022-12-08T14:51:05.935Z,22.67
2022-12-08T14:53:44.580Z,15.80
2022-12-08T14:56:23.276Z,22.35
2022-12-08T14:59:03.203Z,21.58
2022-12-08T15:01:30.795Z,17.13
2022-12-08T15:04:21.894Z,29.43
2022-12-08T15:07:01.138Z,25.20
2022-12-08T15:09:39.102Z,35.10
2022-12-08T15:12:31.858Z,25.58
2022-12-08T15:15:02.528Z,27.17
2022-12-08T15:17:40.933Z,23.43
2022-12-08T15:20:30.185Z,27.63
2022-12-08T15:23:02.628Z,26.83
2022-12-08T15:25:29.461Z,25.73
2022-12-08T15:27:58.075Z,24.47
2022-12-08T15:30:26.624Z,21.17
2022-12-08T15:32:54.349Z,24.38
2022-12-08T15:35:21.453Z,29.07
2022-12-08T15:37:48.652Z,22.33
2022-12-08T15:40:21.252Z,26.13
2022-12-08T15:42:49.250Z,56.60
2022-12-08T15:45:17.428Z,25.50
2022-12-08T15:47:45.545Z,21.90
2022-12-08T15:50:18.598Z,17.57
2022-12-08T15:52:46.131Z,18.17
2022-12-08T15:55:18.920Z,16.50
2022-12-08T16:00:55.546Z,17.83
2022-12-08T16:09:16.079Z,24.23
2022-12-08T16:12:07.283Z,18.03
2022-12-08T16:17:23.491Z,20.23
2022-12-08T16:19:50.654Z,19.63
2022-12-08T16:25:18.924Z,22.67
2022-12-08T16:30:34.868Z,24.75
2022-12-08T16:33:01.897Z,21.60
2022-12-08T16:35:29.179Z,16.13
2022-12-08T16:37:55.970Z,15.17
2022-12-08T16:40:23.230Z,14.57
2022-12-08T16:42:50.487Z,17.03
2022-12-08T16:45:20.830Z,20.60
2022-12-08T16:47:50.226Z,17.63
2022-12-08T16:50:23.176Z,19.33
2022-12-08T16:52:50.912Z,20.37
2022-12-08T16:55:19.681Z,23.37
2022-12-08T16:57:47.789Z,37.67
2022-12-08T17:00:20.716Z,33.30
2022-12-08T17:02:48.529Z,29.93
2022-12-08T17:05:18.753Z,37.47
2022-12-08T17:07:47.659Z,40.73
2022-12-08T17:12:44.101Z,36.67
2022-12-08T17:15:15.333Z,55.83
2022-12-08T17:17:42.379Z,47.23
2022-12-08T17:20:16.226Z,43.70
2022-12-08T17:22:43.416Z,49.53
2022-12-08T17:25:10.838Z,48.30
2022-12-08T17:27:37.975Z,38.17
2022-12-08T17:30:07.154Z,19.80
2022-12-08T17:35:01.398Z,21.40
2022-12-08T17:37:28.240Z,18.90
2022-12-08T17:39:55.329Z,18.00
2022-12-08T17:42:25.982Z,20.13
2022-12-08T17:44:53.849Z,16.97
2022-12-08T17:47:21.164Z,15.33
2022-12-08T17:49:48.282Z,15.67
2022-12-08T17:52:15.157Z,14.33
2022-12-08T17:54:42.297Z,15.57
2022-12-08T17:57:09.176Z,18.80
2022-12-08T17:59:36.279Z,19.57
2022-12-08T18:02:04.404Z,16.20
2022-12-08T18:04:32.069Z,16.95
2022-12-08T18:07:01.270Z,16.70
2022-12-08T18:09:31.001Z,16.93
2022-12-08T18:11:57.922Z,14.57
2022-12-08T18:14:25.089Z,23.80
2022-12-08T18:16:52.059Z,20.50
2022-12-08T18:19:19.228Z,23.20
2022-12-08T18:21:46.118Z,40.37
2022-12-08T18:24:18.981Z,36.77
2022-12-08T18:26:47.028Z,46.33
2022-12-08T18:29:14.301Z,38.10
2022-12-08T18:31:41.106Z,214.50
2022-12-08T18:34:08.196Z,286.60
2022-12-08T18:36:35.217Z,158.67
2022-12-08T18:39:07.202Z,146.87
2022-12-08T18:41:37.226Z,45.00
2022-12-08T18:44:04.580Z,36.40
2022-12-08T18:46:31.598Z,45.90
2022-12-08T18:48:59.574Z,52.87
2022-12-08T18:51:26.510Z,54.53
2022-12-08T18:53:53.710Z,74.60
2022-12-08T18:56:22.269Z,61.63
2022-12-08T18:58:49.633Z,106.47
2022-12-08T19:01:16.751Z,81.50
2022-12-08T19:04:04.729Z,90.30
2022-12-08T19:06:31.297Z,90.33
2022-12-08T19:08:58.483Z,67.00
2022-12-08T19:11:27.539Z,66.17
2022-12-08T19:13:55.675Z,65.57
2022-12-08T19:16:23.055Z,58.17
2022-12-08T19:18:50.221Z,67.47
2022-12-08T19:21:17.359Z,73.73
2022-12-08T19:23:44.492Z,73.80
2022-12-08T19:26:12.193Z,54.73
2022-12-08T19:28:41.093Z,54.73
2022-12-08T19:31:09.770Z,62.25
2022-12-08T19:33:37.838Z,71.55
2022-12-08T19:36:10.030Z,99.87
2022-12-08T19:38:56.438Z,97.40
2022-12-08T19:41:42.759Z,69.87
2022-12-08T19:44:40.538Z,318.03
2022-12-08T19:47:07.480Z,96.90
2022-12-08T19:49:34.877Z,95.13
2022-12-08T19:52:01.821Z,86.33
2022-12-08T19:54:28.973Z,118.80
2022-12-08T19:56:56.021Z,83.47
2022-12-08T19:59:26.252Z,63.90
2022-12-08T20:01:55.828Z,86.17
2022-12-08T20:04:24.721Z,76.83
2022-12-08T20:06:53.645Z,54.45
2022-12-08T20:09:21.554Z,68.33
2022-12-08T20:11:48.381Z,93.97
2022-12-08T20:14:15.513Z,239.87
2022-12-08T20:16:42.415Z,85.30
2022-12-08T20:19:09.593Z,68.03
2022-12-08T20:21:36.425Z,65.30
2022-12-08T20:24:04.721Z,61.00
2022-12-08T20:26:31.849Z,49.63
2022-12-08T20:28:59.064Z,47.80
2022-12-08T20:31:29.001Z,39.53
2022-12-08T20:33:56.203Z,70.33
2022-12-08T20:36:24.668Z,78.07
2022-12-08T20:38:53.282Z,98.40
2022-12-08T20:41:23.369Z,98.63
2022-12-08T20:43:51.389Z,86.97
2022-12-08T20:46:20.327Z,76.23
2022-12-08T20:48:48.139Z,48.23
2022-12-08T20:51:17.459Z,44.47
2022-12-08T20:53:45.681Z,49.80
2022-12-08T20:56:18.060Z,47.27
2022-12-08T20:58:46.050Z,46.00
2022-12-08T21:01:16.294Z,58.70
2022-12-08T21:03:45.339Z,57.30
2022-12-08T21:06:13.074Z,49.55
2022-12-08T21:08:41.218Z,57.23
2022-12-08T21:11:09.719Z,54.90
2022-12-08T21:13:38.210Z,50.67
2022-12-08T21:16:05.648Z,56.90
2022-12-08T21:18:38.869Z,40.20
2022-12-08T21:21:12.271Z,36.87
2022-12-08T21:23:40.525Z,33.97
2022-12-08T21:26:20.028Z,36.30
2022-12-08T21:28:47.562Z,45.40
2022-12-08T21:31:17.453Z,48.53
2022-12-08T21:33:45.172Z,47.77
2022-12-08T21:36:14.970Z,53.60
2022-12-08T21:38:43.316Z,49.53
2022-12-08T21:41:14.583Z,53.77
2022-12-08T21:43:43.315Z,55.97
2022-12-08T21:46:17.403Z,50.58
2022-12-08T21:48:44.663Z,65.73
2022-12-08T21:51:11.916Z,75.10
2022-12-08T21:53:39.303Z,86.73
2022-12-08T21:56:09.850Z,52.40
2022-12-08T21:58:37.021Z,87.23
2022-12-08T22:01:12.031Z,61.47
2022-12-08T22:03:40.589Z,55.23
2022-12-08T22:06:09.546Z,78.55
2022-12-08T22:11:04.544Z,77.90
2022-12-08T22:13:35.047Z,60.93
2022-12-08T22:16:05.022Z,67.13
2022-12-08T22:18:33.822Z,58.10
2022-12-08T22:21:00.855Z,52.22
2022-12-08T22:23:28.861Z,42.97
2022-12-08T22:26:00.187Z,54.50
2022-12-08T22:28:30.437Z,45.50
2022-12-08T22:30:57.436Z,53.27
2022-12-08T22:33:24.830Z,52.53
2022-12-08T22:36:03.431Z,49.53
2022-12-08T22:38:33.972Z,51.97
2022-12-08T22:41:00.962Z,76.03
2022-12-08T22:43:28.682Z,58.60
2022-12-08T22:45:55.605Z,79.70
2022-12-08T22:48:22.787Z,73.50
2022-12-08T22:50:49.681Z,68.27
2022-12-08T22:53:16.822Z,66.03
2022-12-08T22:55:44.750Z,53.53
2022-12-08T22:58:12.309Z,47.70
2022-12-08T23:00:39.472Z,69.33
2022-12-08T23:03:06.983Z,77.50
2022-12-08T23:05:35.375Z,39.03
2022-12-08T23:08:03.556Z,52.40
2022-12-08T23:10:31.426Z,54.77
2022-12-08T23:13:03.544Z,49.10
2022-12-08T23:15:31.595Z,50.80
2022-12-08T23:17:59.249Z,54.87
2022-12-08T23:20:26.222Z,51.90
2022-12-08T23:22:53.449Z,61.83
2022-12-08T23:25:20.455Z,53.53
2022-12-08T23:27:48.062Z,50.47
2022-12-08T23:30:15.327Z,50.17
2022-12-08T23:32:42.836Z,46.40
2022-12-08T23:35:10.136Z,75.80
2022-12-08T23:37:37.685Z,65.17
2022-12-08T23:40:05.670Z,57.47
2022-12-08T23:42:33.205Z,45.65
2022-12-08T23:45:00.369Z,41.10
2022-12-08T23:47:27.602Z,47.87
2022-12-08T23:49:54.408Z,45.13
2022-12-08T23:52:21.531Z,40.17
2022-12-08T23:54:50.743Z,55.57
2022-12-08T23:57:17.977Z,52.70
2022-12-08T23:59:45.046Z,47.93
